Time;durP1;ratioP1;P1;durP2;ratioP2;P2;SDS_P1;SDS_P2;PMS_P1;PMS_P2;Temp;Humidity;BMP_temperature;BMP_pressure;BME280_temperature;BME280_humidity;BME280_pressure;Samples;Min_cycle;Max_cycle;Signal;HPM_P1;HPM_P2
2022/05/17 00:01:40;;;;;;;1.03;0.90;;;;;;;16.32;95.05;95886.91;4372852;32;20220;-63
2022/05/17 00:04:07;;;;;;;0.83;0.63;;;;;;;16.32;94.22;95883.44;4378977;32;20246;-63
2022/05/17 00:06:32;;;;;;;0.40;0.40;;;;;;;16.22;93.44;95889.91;4388987;32;20180;-63
2022/05/17 00:08:59;;;;;;;0.90;0.90;;;;;;;16.24;93.15;95884.22;4388846;32;20221;-63
2022/05/17 00:11:28;;;;;;;0.40;0.40;;;;;;;16.37;95.36;95886.78;4388335;32;20196;-63
2022/05/17 00:13:55;;;;;;;0.63;0.63;;;;;;;16.47;95.50;95885.66;4378718;32;20238;-63
2022/05/17 00:16:25;;;;;;;0.50;0.50;;;;;;;16.38;93.28;95883.00;4383458;32;20207;-63
2022/05/17 00:18:51;;;;;;;0.50;0.50;;;;;;;16.52;94.31;95887.38;4377293;32;20195;-63
2022/05/17 00:21:21;;;;;;;0.70;0.70;;;;;;;16.47;94.53;95878.41;4377279;32;20249;-63
2022/05/17 00:23:49;;;;;;;1.60;0.70;;;;;;;16.49;94.87;95878.09;4346907;32;20262;-63
2022/05/17 00:26:18;;;;;;;0.80;0.80;;;;;;;16.43;93.12;95880.13;4380266;32;20179;-63
2022/05/17 00:28:43;;;;;;;0.93;0.93;;;;;;;16.56;94.29;95888.31;4389553;32;20184;-64
2022/05/17 00:31:10;;;;;;;0.40;0.40;;;;;;;16.42;92.85;95878.56;4390038;32;20176;-63
2022/05/17 00:33:36;;;;;;;0.43;0.43;;;;;;;16.49;93.98;95881.56;4380440;32;20199;-63
2022/05/17 00:36:06;;;;;;;1.07;0.63;;;;;;;16.47;94.21;95881.06;4382871;32;20195;-63
2022/05/17 00:38:34;;;;;;;0.60;0.60;;;;;;;16.32;93.91;95883.44;4384151;32;20272;-63
2022/05/17 00:41:00;;;;;;;0.40;0.40;;;;;;;16.36;94.47;95890.56;4373325;32;20289;-63
2022/05/17 00:46:30;;;;;;;0.80;0.80;;;;;;;16.46;94.01;95884.84;4380004;32;20254;-63
2022/05/17 00:48:58;;;;;;;0.20;0.20;;;;;;;16.48;93.50;95882.66;4370849;32;20203;-63
2022/05/17 00:51:30;;;;;;;0.67;0.67;;;;;;;16.60;94.07;95875.88;4393325;32;20207;-63
2022/05/17 00:54:10;;;;;;;0.70;0.43;;;;;;;16.50;93.16;95879.66;4414093;32;20188;-63
2022/05/17 00:56:42;;;;;;;0.60;0.60;;;;;;;16.55;94.15;95871.47;4390861;32;20195;-63
2022/05/17 00:59:09;;;;;;;1.37;0.40;;;;;;;16.59;93.31;95876.97;4363460;32;20193;-63
2022/05/17 01:01:41;;;;;;;0.90;0.90;;;;;;;16.56;93.98;95877.63;4375432;32;20196;-63
2022/05/17 01:04:21;;;;;;;1.47;1.37;;;;;;;16.47;92.91;95878.41;4388780;32;20208;-63
2022/05/17 01:06:59;;;;;;;1.90;0.93;;;;;;;16.53;93.67;95884.38;4364659;32;20211;-63
2022/05/17 01:09:25;;;;;;;2.60;1.20;;;;;;;16.42;92.74;95878.56;4390384;32;20214;-63
2022/05/17 01:11:50;;;;;;;0.80;0.80;;;;;;;16.45;94.07;95877.91;4369475;32;20180;-63
2022/05/17 01:17:05;;;;;;;0.37;0.37;;;;;;;16.47;92.96;95869.56;4380531;32;20245;-63
2022/05/17 01:19:37;;;;;;;1.07;1.00;;;;;;;16.54;93.22;95871.78;4346319;32;20181;-63
2022/05/17 01:22:04;;;;;;;0.73;0.73;;;;;;;16.53;93.59;95875.56;4384067;32;20222;-63
2022/05/17 01:24:30;;;;;;;0.83;0.83;;;;;;;16.40;93.30;95875.44;4387787;32;20254;-63
2022/05/17 01:27:09;;;;;;;0.97;0.93;;;;;;;16.37;92.79;95878.72;4383837;32;20207;-63
2022/05/17 01:29:44;;;;;;;0.73;0.73;;;;;;;16.42;92.76;95877.75;4379699;32;20181;-63
2022/05/17 01:32:15;;;;;;;0.50;0.50;;;;;;;16.39;92.72;95876.53;4370428;32;20282;-63
2022/05/17 01:34:41;;;;;;;0.77;0.77;;;;;;;16.48;93.78;95871.94;4393853;32;20218;-63
2022/05/17 01:37:12;;;;;;;0.27;0.27;;;;;;;16.44;92.23;95870.19;4382644;32;20295;-63
2022/05/17 01:39:39;;;;;;;3.47;1.63;;;;;;;16.48;93.33;95866.59;4386068;32;20188;-63
2022/05/17 01:42:10;;;;;;;0.57;0.57;;;;;;;16.56;93.22;95873.03;4376806;32;20192;-63
2022/05/17 01:44:39;;;;;;;0.40;0.40;;;;;;;16.67;93.73;95878.88;4356216;32;20176;-63
2022/05/17 01:47:20;;;;;;;0.63;0.63;;;;;;;16.67;93.49;95870.84;4395649;32;20188;-63
2022/05/17 01:49:45;;;;;;;0.50;0.50;;;;;;;16.78;93.09;95867.53;4377673;32;20188;-63
2022/05/17 01:52:13;;;;;;;1.00;0.50;;;;;;;16.65;91.15;95876.50;4389428;32;20210;-63
2022/05/17 01:54:39;;;;;;;0.70;0.70;;;;;;;16.68;93.18;95875.09;4381820;32;20234;-63
2022/05/17 01:57:07;;;;;;;0.63;0.63;;;;;;;16.69;92.79;95868.63;4390709;32;20181;-63
2022/05/17 01:59:34;;;;;;;0.47;0.47;;;;;;;16.54;91.81;95863.75;4391668;32;20192;-63
2022/05/17 02:02:03;;;;;;;4.40;1.30;;;;;;;16.42;92.17;95872.41;4374511;32;20217;-63
2022/05/17 02:04:33;;;;;;;0.57;0.57;;;;;;;16.63;93.62;95867.19;4382503;32;20214;-63
2022/05/17 02:07:00;;;;;;;1.70;1.30;;;;;;;16.61;92.81;95864.06;4341312;32;20255;-63
2022/05/17 02:09:29;;;;;;;2.33;0.37;;;;;;;16.60;93.14;95870.53;4364451;32;20181;-62
2022/05/17 02:12:17;;;;;;;0.50;0.50;;;;;;;16.55;93.16;95876.03;4337694;32;20181;-63
2022/05/17 02:14:44;;;;;;;1.13;1.13;;;;;;;16.72;93.06;95862.63;4361043;32;20212;-63
2022/05/17 02:17:12;;;;;;;0.30;0.30;;;;;;;16.74;92.91;95863.91;4349948;32;20247;-63
2022/05/17 02:19:38;;;;;;;0.43;0.43;;;;;;;16.65;91.72;95865.00;4348620;32;20189;-63
2022/05/17 02:22:06;;;;;;;1.13;1.13;;;;;;;16.72;92.88;95860.75;4375877;32;20196;-63
2022/05/17 02:24:32;;;;;;;0.73;0.73;;;;;;;16.69;92.77;95855.22;4367215;32;20208;-63
2022/05/17 02:26:58;;;;;;;1.37;0.60;;;;;;;16.65;92.45;95854.28;4362886;32;20174;-63
2022/05/17 02:29:25;;;;;;;1.43;0.80;;;;;;;16.53;91.92;95859.50;4360510;32;20207;-64
2022/05/17 02:31:51;;;;;;;1.17;1.03;;;;;;;16.48;91.12;95863.91;4361383;32;20218;-63
2022/05/17 02:34:19;;;;;;;0.77;0.77;;;;;;;16.46;93.44;95862.66;4347623;32;20277;-63
2022/05/17 02:36:47;;;;;;;1.37;1.27;;;;;;;16.34;91.48;95873.22;4347732;32;20251;-64
2022/05/17 02:39:14;;;;;;;0.67;0.67;;;;;;;16.36;91.31;95873.69;4338169;32;20193;-64
2022/05/17 02:41:40;;;;;;;1.73;1.10;;;;;;;16.42;93.37;95877.75;4336608;32;20189;-64
2022/05/17 02:44:07;;;;;;;0.47;0.47;;;;;;;16.47;92.10;95878.41;4360446;32;20240;-63
2022/05/17 02:46:34;;;;;;;0.30;0.30;;;;;;;16.49;92.99;95875.41;4362500;32;20184;-63
2022/05/17 02:49:04;;;;;;;1.03;0.70;;;;;;;16.49;93.29;95878.88;4374408;32;20247;-63
2022/05/17 02:51:34;;;;;;;3.90;1.07;;;;;;;16.42;92.68;95875.09;4347146;32;20235;-63
2022/05/17 02:54:06;;;;;;;0.43;0.43;;;;;;;16.39;93.26;95883.78;4374455;32;20242;-63
2022/05/17 02:56:36;;;;;;;0.90;0.90;;;;;;;16.34;92.09;95882.03;4359315;32;20188;-63
2022/05/17 02:59:01;;;;;;;1.43;0.70;;;;;;;16.38;93.13;95876.84;4348329;32;20185;-63
2022/05/17 03:01:27;;;;;;;0.53;0.53;;;;;;;16.41;93.59;95884.25;4332357;32;20209;-63
2022/05/17 03:03:54;;;;;;;0.77;0.77;;;;;;;16.37;92.69;95886.78;4361571;32;20268;-63
2022/05/17 03:06:21;;;;;;;1.80;1.37;;;;;;;16.28;92.00;95893.22;4361961;32;20269;-63
2022/05/17 03:08:47;;;;;;;0.83;0.83;;;;;;;16.38;93.37;95882.19;4370612;32;20289;-63
2022/05/17 03:11:15;;;;;;;0.63;0.63;;;;;;;16.50;93.43;95883.13;4368973;32;20184;-63
2022/05/17 03:13:42;;;;;;;3.10;1.33;;;;;;;16.54;92.07;95891.31;4374185;32;20184;-63
2022/05/17 03:16:10;;;;;;;0.50;0.50;;;;;;;16.53;93.36;95891.63;4381386;32;20188;-63
2022/05/17 03:18:39;;;;;;;7.07;1.00;;;;;;;16.50;93.07;95893.06;4348882;32;20243;-63
2022/05/17 03:21:06;;;;;;;0.93;0.93;;;;;;;16.50;93.03;95890.38;4362552;32;20180;-63
2022/05/17 03:23:35;;;;;;;2.43;0.67;;;;;;;16.42;92.27;95894.63;4365813;32;20272;-63
2022/05/17 03:26:04;;;;;;;0.93;0.50;;;;;;;16.35;92.61;95897.00;4372977;32;20188;-63
2022/05/17 03:28:29;;;;;;;0.70;0.70;;;;;;;16.50;93.70;95899.19;4375326;32;20264;-62
2022/05/17 03:30:56;;;;;;;0.87;0.87;;;;;;;16.44;93.23;95899.66;4357888;32;20252;-63
2022/05/17 03:33:22;;;;;;;0.60;0.60;;;;;;;16.63;92.96;95902.00;4376366;32;20211;-63
2022/05/17 03:35:48;;;;;;;0.73;0.73;;;;;;;16.56;92.75;95899.84;4371617;32;20193;-63
2022/05/17 03:38:15;;;;;;;0.77;0.77;;;;;;;16.58;92.44;95902.97;4390045;32;20184;-63
2022/05/17 03:40:42;;;;;;;0.50;0.50;;;;;;;16.41;92.44;95906.47;4379756;32;20224;-63
2022/05/17 03:43:08;;;;;;;4.70;1.33;;;;;;;16.57;92.88;95900.63;4372818;32;20181;-63
2022/05/17 03:45:37;;;;;;;0.43;0.43;;;;;;;16.57;92.16;95908.66;4376806;32;20181;-63
2022/05/17 03:48:05;;;;;;;0.60;0.60;;;;;;;16.36;92.03;95906.63;4374813;32;20168;-63
2022/05/17 03:50:30;;;;;;;0.40;0.40;;;;;;;16.46;92.79;95908.97;4373116;32;20227;-63
2022/05/17 03:52:55;;;;;;;6.33;1.20;;;;;;;16.55;93.15;95919.69;4391726;32;20176;-63
2022/05/17 03:55:21;;;;;;;0.80;0.80;;;;;;;16.56;92.90;95909.75;4390049;32;20173;-63
2022/05/17 03:57:47;;;;;;;1.20;1.20;;;;;;;16.54;92.61;95906.59;4386687;32;20200;-63
2022/05/17 04:00:15;;;;;;;1.43;1.33;;;;;;;16.64;92.61;95903.62;4357229;32;20188;-63
2022/05/17 04:02:43;;;;;;;1.00;1.00;;;;;;;16.56;92.14;95912.44;4382221;32;20172;-63
2022/05/17 04:05:09;;;;;;;0.77;0.77;;;;;;;16.60;92.70;95921.41;4365771;32;20230;-63
2022/05/17 04:07:36;;;;;;;0.43;0.43;;;;;;;16.62;91.72;95916.53;4345766;32;20250;-63
2022/05/17 04:10:05;;;;;;;0.90;0.87;;;;;;;16.55;91.52;95919.69;4383789;32;20185;-63
2022/05/17 04:12:32;;;;;;;0.70;0.70;;;;;;;16.59;92.46;95915.28;4375662;32;20195;-63
2022/05/17 04:14:57;;;;;;;0.83;0.83;;;;;;;16.50;92.09;95923.31;4330836;32;20185;-64
2022/05/17 04:17:29;;;;;;;0.57;0.57;;;;;;;16.54;92.50;95922.69;4359786;32;20188;-63
2022/05/17 04:19:58;;;;;;;0.93;0.93;;;;;;;16.50;92.54;95927.88;4385665;32;20183;-63
2022/05/17 04:22:31;;;;;;;1.30;1.20;;;;;;;16.37;92.09;95932.28;4364288;32;20188;-64
2022/05/17 04:24:57;;;;;;;0.80;0.80;;;;;;;16.34;92.90;95927.56;4336844;32;20188;-63
2022/05/17 04:27:43;;;;;;;0.90;0.90;;;;;;;16.18;93.62;95931.03;4380106;32;20185;-63
2022/05/17 04:30:09;;;;;;;1.47;1.33;;;;;;;16.36;93.57;95927.25;4350097;32;20199;-64
2022/05/17 04:32:35;;;;;;;1.00;1.00;;;;;;;16.31;92.56;95927.41;4389008;32;20199;-64
2022/05/17 04:35:01;;;;;;;0.93;0.93;;;;;;;16.36;92.77;95932.59;4345531;32;20236;-64
2022/05/17 04:37:33;;;;;;;0.60;0.60;;;;;;;16.31;93.60;95930.06;4359570;32;20189;-64
2022/05/17 04:39:58;;;;;;;0.67;0.67;;;;;;;16.32;93.46;95937.00;4380214;32;20188;-63
2022/05/17 04:42:24;;;;;;;0.97;0.97;;;;;;;16.13;93.67;95942.66;4392009;32;20199;-64
2022/05/17 04:44:59;;;;;;;0.70;0.70;;;;;;;16.29;93.89;95938.41;4393852;32;20276;-64
2022/05/17 04:47:25;;;;;;;1.60;1.00;;;;;;;16.38;93.33;95935.75;4404673;32;20255;-64
2022/05/17 04:49:53;;;;;;;0.87;0.87;;;;;;;16.48;93.37;95941.56;4365278;32;20207;-64
2022/05/17 04:52:20;;;;;;;3.30;0.80;;;;;;;16.61;93.22;95939.88;4369338;32;20189;-64
2022/05/17 04:54:45;;;;;;;0.93;0.93;;;;;;;16.46;92.77;95943.78;4372488;32;20206;-64
2022/05/17 04:57:14;;;;;;;1.00;1.00;;;;;;;16.33;92.85;95954.66;4378882;32;20172;-64
2022/05/17 04:59:41;;;;;;;0.40;0.40;;;;;;;16.39;92.06;95954.19;4378262;32;20302;-64
2022/05/17 05:02:08;;;;;;;2.23;1.43;;;;;;;16.36;92.32;95954.81;4349070;32;20192;-64
2022/05/17 05:04:35;;;;;;;1.00;1.00;;;;;;;16.19;92.37;95956.69;4390187;32;20241;-64
2022/05/17 05:07:00;;;;;;;4.97;1.60;;;;;;;16.27;93.77;95950.53;4369533;32;20208;-63
2022/05/17 05:09:28;;;;;;;0.90;0.90;;;;;;;16.35;93.46;95961.28;4388531;32;20237;-64
2022/05/17 05:11:55;;;;;;;1.00;1.00;;;;;;;16.33;92.24;95966.16;4369390;32;20172;-64
2022/05/17 05:14:21;;;;;;;1.03;1.03;;;;;;;16.33;91.55;95963.47;4380864;32;20203;-64
2022/05/17 05:16:49;;;;;;;1.57;1.47;;;;;;;16.17;91.67;95970.38;4392599;32;20366;-64
2022/05/17 05:19:17;;;;;;;1.37;1.33;;;;;;;16.21;93.17;95968.63;4391349;32;20257;-64
2022/05/17 05:21:43;;;;;;;0.87;0.87;;;;;;;16.27;92.94;95970.06;4363676;32;20200;-63
2022/05/17 05:24:11;;;;;;;1.07;1.07;;;;;;;16.37;92.93;95966.31;4378174;32;20184;-63
2022/05/17 05:26:37;;;;;;;1.13;1.13;;;;;;;16.43;92.56;95976.53;4366180;32;20185;-63
2022/05/17 05:29:08;;;;;;;1.30;0.90;;;;;;;16.35;91.48;95972.00;4363489;32;20197;-64
2022/05/17 05:31:34;;;;;;;0.87;0.87;;;;;;;16.37;92.69;95975.16;4375649;32;20237;-64
2022/05/17 05:34:00;;;;;;;0.83;0.83;;;;;;;16.52;93.18;95975.78;4391668;32;20242;-63
2022/05/17 05:36:29;;;;;;;0.97;0.97;;;;;;;16.55;93.05;95975.94;4390560;32;20168;-62
2022/05/17 05:38:56;;;;;;;1.17;1.17;;;;;;;16.53;92.26;95974.69;4391374;32;20184;-62
2022/05/17 05:41:23;;;;;;;1.03;1.03;;;;;;;16.51;91.89;95974.97;4358275;32;20176;-62
2022/05/17 05:43:49;;;;;;;2.77;1.53;;;;;;;16.34;91.30;95978.44;4364029;32;20195;-63
2022/05/17 05:46:16;;;;;;;3.40;1.57;;;;;;;16.58;92.32;95985.25;4388542;32;20211;-62
2022/05/17 05:48:43;;;;;;;2.03;1.27;;;;;;;16.63;91.24;95995.78;4390366;32;20207;-62
2022/05/17 05:51:10;;;;;;;1.10;1.00;;;;;;;16.60;89.59;95988.41;4373700;32;20177;-62
2022/05/17 05:53:36;;;;;;;1.40;1.33;;;;;;;16.53;90.81;95990.75;4361605;32;20180;-62
2022/05/17 05:56:05;;;;;;;0.87;0.87;;;;;;;16.25;91.02;95993.69;4370112;32;20192;-62
2022/05/17 05:58:40;;;;;;;1.63;1.57;;;;;;;16.21;91.95;95989.31;4390475;32;20188;-62
2022/05/17 06:01:07;;;;;;;0.80;0.80;;;;;;;16.30;91.60;95998.91;4384377;32;20171;-63
2022/05/17 06:03:33;;;;;;;1.47;1.37;;;;;;;16.38;90.19;96000.81;4362075;32;20188;-62
2022/05/17 06:06:01;;;;;;;1.53;1.43;;;;;;;16.21;91.30;96003.44;4368750;32;20219;-62
2022/05/17 06:08:27;;;;;;;2.93;0.93;;;;;;;16.32;91.22;95996.72;4374523;32;20214;-60
2022/05/17 06:10:52;;;;;;;1.93;1.80;;;;;;;16.40;91.66;96001.31;4386033;32;20192;-63
2022/05/17 06:13:18;;;;;;;1.40;1.30;;;;;;;16.34;92.78;95993.72;4372807;32;20384;-62
2022/05/17 06:15:45;;;;;;;2.10;1.93;;;;;;;16.65;93.41;95993.59;4393858;32;20247;-63
2022/05/17 06:18:12;;;;;;;1.20;1.20;;;;;;;16.74;92.40;95989.84;4374721;32;20246;-63
2022/05/17 06:20:39;;;;;;;1.17;1.17;;;;;;;16.78;90.74;95990.00;4335264;32;20221;-63
2022/05/17 06:23:07;;;;;;;2.63;0.93;;;;;;;16.88;90.32;95991.56;4346542;32;20201;-62
2022/05/17 06:25:33;;;;;;;0.90;0.90;;;;;;;17.07;90.86;96000.06;4368878;32;20184;-64
2022/05/17 06:28:02;;;;;;;0.57;0.57;;;;;;;17.14;90.28;95998.47;4388748;32;20242;-63
2022/05/17 06:30:29;;;;;;;1.40;1.40;;;;;;;17.16;88.89;95996.25;4390573;32;20204;-64
2022/05/17 06:32:56;;;;;;;0.93;0.93;;;;;;;17.20;88.24;95987.59;4363490;32;20314;-64
2022/05/17 06:35:24;;;;;;;1.43;1.40;;;;;;;17.30;87.90;95995.28;4377859;32;20194;-64
2022/05/17 06:37:50;;;;;;;1.47;1.47;;;;;;;17.30;88.28;95990.72;4384452;32;20378;-64
2022/05/17 06:40:17;;;;;;;4.13;2.27;;;;;;;17.45;87.70;95990.22;4390402;32;20217;-64
2022/05/17 06:42:43;;;;;;;2.33;1.87;;;;;;;17.53;87.71;95991.28;4389050;32;20198;-64
2022/05/17 06:45:11;;;;;;;3.80;1.80;;;;;;;17.60;86.87;95991.59;4391446;32;20270;-64
2022/05/17 06:47:40;;;;;;;1.30;1.30;;;;;;;17.68;86.44;95988.09;4331252;32;20197;-64
2022/05/17 06:50:10;;;;;;;1.60;1.50;;;;;;;17.77;87.33;95990.75;4389538;32;20192;-64
2022/05/17 06:52:38;;;;;;;1.73;1.73;;;;;;;17.84;85.25;95991.03;4390896;32;20225;-65
2022/05/17 06:55:04;;;;;;;2.57;2.37;;;;;;;17.91;84.86;95993.22;4397852;32;20238;-65
2022/05/17 06:57:29;;;;;;;1.63;1.53;;;;;;;17.90;84.35;95991.63;4368115;32;20188;-65
2022/05/17 06:59:58;;;;;;;1.27;1.27;;;;;;;17.96;84.40;95990.34;4390409;32;20211;-66
2022/05/17 07:02:24;;;;;;;1.43;1.40;;;;;;;18.06;84.31;95998.84;4389458;32;20181;-65
2022/05/17 07:04:50;;;;;;;1.63;1.63;;;;;;;18.26;83.67;95997.31;4385044;32;20176;-64
2022/05/17 07:07:16;;;;;;;1.17;1.17;;;;;;;18.20;82.15;96001.28;4381671;32;20188;-65
2022/05/17 07:13:07;;;;;;;1.10;1.10;;;;;;;18.18;82.19;95996.22;4390440;32;20185;-65
2022/05/17 07:15:18;;;;;;;1.37;1.30;;;;;;;18.24;81.75;95999.53;4389599;32;20327;-65
2022/05/17 07:17:43;;;;;;;1.20;1.20;;;;;;;18.30;82.12;95990.16;4382689;32;20203;-65
2022/05/17 07:20:09;;;;;;;1.83;1.73;;;;;;;18.32;83.37;95995.97;4384933;32;20180;-65
2022/05/17 07:22:35;;;;;;;1.50;1.40;;;;;;;18.16;83.31;95992.28;4372646;32;20237;-65
2022/05/17 07:25:02;;;;;;;2.23;1.33;;;;;;;18.26;83.54;95994.63;4371683;32;20269;-65
2022/05/17 07:27:28;;;;;;;1.53;1.53;;;;;;;18.32;82.45;95995.97;4375231;32;20180;-65
2022/05/17 07:29:54;;;;;;;1.60;1.50;;;;;;;18.38;82.36;95994.69;4375841;32;20256;-66
2022/05/17 07:32:22;;;;;;;1.20;1.17;;;;;;;18.48;81.89;95997.00;4388967;32;20282;-66
2022/05/17 07:34:49;;;;;;;0.87;0.87;;;;;;;18.41;80.23;96006.69;4387666;32;20184;-66
2022/05/17 07:37:16;;;;;;;1.20;1.20;;;;;;;18.41;80.50;96001.31;4389069;32;20177;-66
2022/05/17 07:39:44;;;;;;;4.20;1.70;;;;;;;18.36;80.78;96002.28;4382607;32;20234;-66
2022/05/17 07:42:11;;;;;;;1.13;1.13;;;;;;;18.49;81.09;95998.59;4396559;32;20189;-66
2022/05/17 07:44:36;;;;;;;2.50;1.97;;;;;;;18.53;81.67;95996.78;4387629;32;20188;-66
2022/05/17 07:47:04;;;;;;;1.37;1.20;;;;;;;18.55;81.46;96005.31;4373129;32;20211;-66
2022/05/17 07:49:32;;;;;;;2.27;1.10;;;;;;;18.78;81.83;95996.97;4367597;32;20176;-65
2022/05/17 07:52:00;;;;;;;1.50;0.97;;;;;;;18.91;81.02;95995.12;4315631;32;20196;-65
2022/05/17 07:54:26;;;;;;;1.37;1.37;;;;;;;18.90;81.37;95997.03;4374655;32;20191;-66
2022/05/17 07:56:52;;;;;;;1.53;1.43;;;;;;;18.99;79.13;95995.03;4377553;32;20191;-66
2022/05/17 07:59:18;;;;;;;2.00;1.23;;;;;;;19.09;78.42;95994.66;4398634;32;20278;-66
2022/05/17 08:01:44;;;;;;;4.10;1.70;;;;;;;19.12;77.93;95983.19;4384112;32;20203;-66
2022/05/17 08:04:10;;;;;;;1.30;1.20;;;;;;;18.97;78.02;95988.41;4381254;32;20206;-66
2022/05/17 08:06:36;;;;;;;2.17;1.60;;;;;;;18.84;78.27;95992.97;4388118;32;20256;-66
2022/05/17 08:09:04;;;;;;;1.73;1.63;;;;;;;18.74;78.86;95996.03;4378846;32;20247;-66
2022/05/17 08:11:29;;;;;;;1.87;1.70;;;;;;;18.76;80.15;95999.19;4383248;32;20242;-65
2022/05/17 08:13:54;;;;;;;1.80;1.70;;;;;;;18.86;79.42;95994.22;4380000;32;20172;-66
2022/05/17 08:16:20;;;;;;;2.27;1.23;;;;;;;19.03;77.93;95985.19;4391350;32;20344;-66
2022/05/17 08:18:47;;;;;;;1.07;1.07;;;;;;;19.07;79.23;95986.13;4373293;32;20177;-66
2022/05/17 08:21:15;;;;;;;0.97;0.93;;;;;;;19.11;78.03;95989.72;4345190;32;20196;-66
2022/05/17 08:23:41;;;;;;;0.77;0.77;;;;;;;19.27;76.74;95994.47;4387287;32;20181;-66
2022/05/17 08:28:53;;;;;;;0.60;0.60;;;;;;;19.35;75.74;95982.81;4381848;32;20199;-63
2022/05/17 08:31:19;;;;;;;2.33;1.43;;;;;;;19.28;75.89;95982.59;4357322;32;20174;-64
2022/05/17 08:33:45;;;;;;;1.00;1.00;;;;;;;19.17;76.01;95983.00;4388397;32;20203;-63
2022/05/17 08:36:11;;;;;;;4.67;1.10;;;;;;;19.09;76.18;95981.19;4389832;32;20236;-64
2022/05/17 08:38:43;;;;;;;1.93;0.70;;;;;;;19.22;76.19;95990.88;4387013;32;20184;-64
2022/05/17 08:41:37;;;;;;;0.73;0.73;;;;;;;19.32;76.10;95989.69;4364258;32;20199;-63
2022/05/17 08:44:14;;;;;;;0.70;0.70;;;;;;;19.58;73.03;95986.72;4379493;32;20192;-63
2022/05/17 08:46:59;;;;;;;0.67;0.67;;;;;;;19.41;75.37;95987.66;4387185;32;20172;-64
2022/05/17 08:49:39;;;;;;;1.20;1.20;;;;;;;19.51;74.16;95983.81;4373439;32;20258;-65
2022/05/17 08:52:27;;;;;;;0.87;0.87;;;;;;;19.52;74.48;95990.75;4341961;32;20187;-65
2022/05/17 08:55:00;;;;;;;0.77;0.73;;;;;;;19.62;73.32;95987.62;4374298;32;20198;-65
2022/05/17 08:57:41;;;;;;;1.33;1.23;;;;;;;19.63;70.91;95975.72;4387458;32;20188;-66
2022/05/17 09:00:25;;;;;;;0.80;0.80;;;;;;;19.71;71.81;95985.63;4376759;32;20200;-65
2022/05/17 09:03:02;;;;;;;0.67;0.67;;;;;;;19.69;71.41;95989.78;4378556;32;20199;-65
2022/05/17 09:06:21;;;;;;;0.80;0.80;;;;;;;19.65;72.92;95986.16;4387529;32;20202;-64
2022/05/17 09:08:59;;;;;;;1.83;1.37;;;;;;;19.61;70.81;95994.13;4340365;33;20186;-65
2022/05/17 09:11:36;;;;;;;0.90;0.90;;;;;;;19.66;70.24;95976.97;4329465;33;20196;-65
2022/05/17 09:14:14;;;;;;;1.23;1.17;;;;;;;19.74;71.81;95976.87;4326763;33;20243;-64
2022/05/17 09:16:50;;;;;;;1.80;1.77;;;;;;;19.89;72.46;95981.59;4341610;33;20284;-65
2022/05/17 09:19:17;;;;;;;2.80;1.07;;;;;;;19.94;71.11;95977.91;4324395;33;20177;-65
2022/05/17 09:21:48;;;;;;;2.23;2.03;;;;;;;19.96;71.28;95974.84;4303782;33;20186;-65
2022/05/17 09:24:17;;;;;;;1.17;1.13;;;;;;;20.00;71.78;95978.44;4325452;32;20199;-65
2022/05/17 09:27:09;;;;;;;1.00;0.97;;;;;;;19.80;70.93;95988.19;4342989;32;20336;-65
2022/05/17 09:29:45;;;;;;;0.50;0.50;;;;;;;19.56;66.34;95983.56;4319020;33;20219;-65
2022/05/17 09:32:12;;;;;;;1.53;1.30;;;;;;;19.75;70.55;95975.72;4317646;32;20193;-65
2022/05/17 09:34:45;;;;;;;1.10;0.93;;;;;;;19.83;68.48;95977.56;4337772;32;20181;-65
2022/05/17 09:37:19;;;;;;;1.03;1.03;;;;;;;20.00;67.22;95970.38;4343606;32;20190;-65
2022/05/17 09:39:52;;;;;;;0.27;0.27;;;;;;;19.96;68.82;95980.22;4315731;32;20204;-65
2022/05/17 09:42:35;;;;;;;0.57;0.57;;;;;;;20.13;63.94;95980.81;4343838;32;20282;-65
2022/05/17 09:45:10;;;;;;;2.10;1.37;;;;;;;20.28;61.92;95982.03;4368720;32;20235;-65
2022/05/17 09:47:53;;;;;;;0.67;0.67;;;;;;;20.46;63.99;95977.97;4370082;32;20191;-65
2022/05/17 09:53:14;;;;;;;0.40;0.40;;;;;;;20.64;65.16;95965.03;4390775;32;20194;-65
2022/05/17 09:55:43;;;;;;;0.67;0.67;;;;;;;20.59;65.50;95974.13;4372004;32;20202;-65
2022/05/17 09:58:10;;;;;;;0.70;0.70;;;;;;;20.42;65.33;95977.09;4389676;32;20185;-65
2022/05/17 10:00:42;;;;;;;0.90;0.90;;;;;;;20.46;64.50;95971.81;4363592;32;20203;-65
2022/05/17 10:03:16;;;;;;;0.53;0.53;;;;;;;20.36;65.76;95969.56;4385262;32;20191;-65
2022/05/17 10:05:57;;;;;;;0.80;0.80;;;;;;;20.31;65.78;95975.97;4396622;32;20223;-65
2022/05/17 10:08:38;;;;;;;0.87;0.87;;;;;;;20.35;66.73;95970.69;4374521;32;20275;-65
2022/05/17 10:11:26;;;;;;;1.13;0.90;;;;;;;20.43;61.34;95975.97;4389158;32;20194;-64
2022/05/17 10:14:22;;;;;;;0.47;0.47;;;;;;;20.47;62.54;95974.16;4389451;32;20258;-65
2022/05/17 10:17:12;;;;;;;0.53;0.53;;;;;;;20.49;62.68;95974.59;4373110;32;20311;-66
2022/05/17 10:19:44;;;;;;;0.60;0.60;;;;;;;20.59;61.34;95966.03;4356545;32;20189;-65
2022/05/17 10:22:25;;;;;;;0.83;0.83;;;;;;;20.73;64.30;95964.88;4389308;32;20184;-65
2022/05/17 10:25:03;;;;;;;1.03;1.03;;;;;;;20.81;63.18;95962.03;4361677;32;20220;-65
2022/05/17 10:27:44;;;;;;;0.77;0.77;;;;;;;20.74;64.63;95964.56;4353017;32;20202;-64
2022/05/17 10:30:26;;;;;;;0.80;0.80;;;;;;;20.76;64.31;95954.22;4368042;32;20247;-65
2022/05/17 10:32:57;;;;;;;0.90;0.90;;;;;;;20.62;61.95;95953.78;4378828;32;20194;-65
2022/05/17 10:35:44;;;;;;;1.47;0.90;;;;;;;20.60;62.78;95961.44;4324789;32;20193;-65
2022/05/17 10:38:14;;;;;;;1.67;1.07;;;;;;;20.69;59.73;95955.91;4385135;32;20200;-66
2022/05/17 10:40:45;;;;;;;0.87;0.87;;;;;;;20.79;60.33;95956.19;4384529;32;20208;-65
2022/05/17 10:43:26;;;;;;;0.70;0.70;;;;;;;20.83;59.75;95964.41;4350173;32;20270;-65
2022/05/17 10:46:11;;;;;;;0.97;0.97;;;;;;;20.81;58.52;95953.16;4360644;32;20185;-65
2022/05/17 10:49:15;;;;;;;0.87;0.87;;;;;;;20.82;62.39;95957.44;4356863;32;20203;-65
2022/05/17 10:52:10;;;;;;;0.50;0.50;;;;;;;20.90;60.38;95957.28;4367180;32;20188;-65
2022/05/17 10:55:13;;;;;;;0.70;0.70;;;;;;;20.69;60.62;95947.81;4390893;32;20184;-65
2022/05/17 10:57:57;;;;;;;0.97;0.83;;;;;;;20.75;60.15;95944.53;4370363;32;20199;-65
2022/05/17 11:00:31;;;;;;;7.23;4.50;;;;;;;20.80;59.78;95952.38;4371975;32;20201;-65
2022/05/17 11:03:24;;;;;;;12.37;5.73;;;;;;;20.81;60.69;95947.75;4380499;32;20190;-65
2022/05/17 11:06:37;;;;;;;0.70;0.70;;;;;;;20.80;59.58;95943.50;4370938;32;20185;-65
2022/05/17 11:09:24;;;;;;;0.87;0.87;;;;;;;20.71;57.39;95945.56;4366094;32;20215;-65
2022/05/17 11:12:06;;;;;;;0.60;0.60;;;;;;;20.70;58.74;95938.59;4350564;32;20180;-65
2022/05/17 11:14:52;;;;;;;0.50;0.50;;;;;;;20.54;58.30;95942.03;4350013;32;20220;-65
2022/05/17 11:17:35;;;;;;;0.80;0.80;;;;;;;20.53;55.71;95939.66;4370032;32;20264;-65
2022/05/17 11:20:12;;;;;;;0.93;0.93;;;;;;;20.70;56.33;95944.00;4356845;32;20204;-65
2022/05/17 11:22:43;;;;;;;0.47;0.47;;;;;;;20.75;57.21;95952.63;4374862;32;20185;-65
2022/05/17 11:25:40;;;;;;;0.83;0.83;;;;;;;20.70;56.97;95946.69;4355468;32;20189;-64
2022/05/17 11:28:46;;;;;;;0.63;0.63;;;;;;;20.74;56.96;95945.66;4340024;32;20181;-65
2022/05/17 11:31:23;;;;;;;0.40;0.40;;;;;;;20.83;59.05;95942.81;4347959;32;20220;-65
2022/05/17 11:33:50;;;;;;;0.80;0.80;;;;;;;20.84;56.66;95928.19;4359358;32;20310;-65
2022/05/17 11:36:34;;;;;;;0.50;0.50;;;;;;;20.93;56.95;95936.94;4399173;32;20188;-65
2022/05/17 11:39:01;;;;;;;1.27;1.27;;;;;;;20.90;56.14;95934.94;4363448;32;20192;-64
2022/05/17 11:41:35;;;;;;;0.80;0.80;;;;;;;20.86;57.55;95934.81;4356456;32;20207;-65
2022/05/17 11:44:05;;;;;;;0.63;0.63;;;;;;;20.91;57.92;95933.81;4385578;32;20206;-64
2022/05/17 11:46:49;;;;;;;0.57;0.57;;;;;;;21.01;58.39;95921.72;4363878;32;20200;-64
2022/05/17 11:49:28;;;;;;;2.60;1.00;;;;;;;21.03;58.43;95922.94;4374807;32;20180;-65
2022/05/17 11:51:56;;;;;;;0.43;0.43;;;;;;;21.00;58.24;95925.53;4374628;32;20172;-65
2022/05/17 11:54:49;;;;;;;0.40;0.40;;;;;;;21.04;57.59;95926.41;4367904;32;20208;-65
2022/05/17 11:57:23;;;;;;;0.77;0.77;;;;;;;20.98;57.17;95922.44;4371360;32;20188;-65
2022/05/17 12:00:04;;;;;;;0.33;0.33;;;;;;;20.97;58.47;95926.25;4362657;32;20199;-65
2022/05/17 12:02:46;;;;;;;2.37;1.40;;;;;;;20.99;59.71;95930.16;4345382;32;20185;-63
2022/05/17 12:05:36;;;;;;;1.23;0.83;;;;;;;20.98;59.27;95923.22;4350380;32;20269;-64
2022/05/17 12:08:36;;;;;;;0.70;0.70;;;;;;;21.01;57.17;95922.50;4354738;32;20246;-64